createdAt,value
2023-04-20T00:01:46.559Z,50.28
2023-04-20T00:04:13.566Z,50.50
2023-04-20T00:06:39.945Z,50.41
2023-04-20T00:09:06.348Z,50.72
2023-04-20T00:11:32.700Z,50.55
2023-04-20T00:13:59.243Z,50.45
2023-04-20T00:16:25.620Z,50.25
2023-04-20T00:18:52.132Z,50.56
2023-04-20T00:21:21.832Z,50.43
2023-04-20T00:23:48.166Z,50.36
2023-04-20T00:26:14.517Z,50.55
2023-04-20T00:28:42.124Z,50.55
2023-04-20T00:31:08.561Z,50.56
2023-04-20T00:33:34.930Z,50.40
2023-04-20T00:36:01.335Z,50.47
2023-04-20T00:38:30.660Z,50.55
2023-04-20T00:40:59.180Z,50.60
2023-04-20T00:43:25.886Z,50.58
2023-04-20T00:45:52.584Z,50.73
2023-04-20T00:48:19.201Z,50.68
2023-04-20T00:50:45.813Z,50.56
2023-04-20T00:53:12.349Z,50.61
2023-04-20T00:55:38.703Z,50.69
2023-04-20T00:58:05.682Z,50.57
2023-04-20T01:00:33.060Z,50.60
2023-04-20T01:02:59.547Z,50.55
2023-04-20T01:05:26.819Z,50.56
2023-04-20T01:07:54.733Z,50.69
2023-04-20T01:10:21.065Z,50.51
2023-04-20T01:12:47.518Z,50.75
2023-04-20T01:15:13.872Z,50.56
2023-04-20T01:17:40.365Z,50.67
2023-04-20T01:20:14.813Z,50.65
2023-04-20T01:22:44.976Z,50.59
2023-04-20T01:25:12.185Z,50.50
2023-04-20T01:27:38.520Z,50.42
2023-04-20T01:30:04.989Z,50.64
2023-04-20T01:32:31.761Z,50.54
2023-04-20T01:34:58.893Z,50.70
2023-04-20T01:37:25.238Z,50.54
2023-04-20T01:39:51.671Z,50.59
2023-04-20T01:42:20.747Z,50.60
2023-04-20T01:44:48.577Z,50.65
2023-04-20T01:47:15.080Z,50.65
2023-04-20T01:49:41.468Z,50.65
2023-04-20T01:52:09.043Z,50.61
2023-04-20T01:54:35.893Z,50.49
2023-04-20T01:57:02.428Z,50.59
2023-04-20T01:59:28.788Z,50.49
2023-04-20T02:01:55.177Z,50.54
2023-04-20T02:04:21.551Z,50.76
2023-04-20T02:06:47.933Z,50.57
2023-04-20T02:09:14.305Z,50.44
2023-04-20T02:11:40.659Z,50.66
2023-04-20T02:14:07.017Z,50.50
2023-04-20T02:16:33.545Z,50.60
2023-04-20T02:18:59.961Z,50.63
2023-04-20T02:21:26.407Z,50.57
2023-04-20T02:23:52.746Z,50.57
2023-04-20T02:26:19.193Z,50.65
2023-04-20T02:28:45.693Z,50.63
2023-04-20T02:31:12.115Z,50.69
2023-04-20T02:33:38.727Z,50.58
2023-04-20T02:36:05.338Z,50.70
2023-04-20T02:38:32.180Z,50.66
2023-04-20T02:40:59.941Z,50.43
2023-04-20T02:43:26.596Z,50.40
2023-04-20T02:45:53.459Z,50.60
2023-04-20T02:48:21.977Z,50.51
2023-04-20T02:50:48.803Z,50.68
2023-04-20T02:53:20.899Z,50.61
2023-04-20T02:55:53.299Z,50.57
2023-04-20T02:58:27.986Z,50.63
2023-04-20T03:01:11.758Z,50.62
2023-04-20T03:03:39.107Z,50.65
2023-04-20T03:06:09.421Z,50.74
2023-04-20T03:08:36.333Z,50.68
2023-04-20T03:11:22.280Z,50.69
2023-04-20T03:13:50.079Z,50.74
2023-04-20T03:16:18.154Z,50.84
2023-04-20T03:18:48.511Z,50.56
2023-04-20T03:21:14.961Z,50.68
2023-04-20T03:23:41.372Z,50.62
2023-04-20T03:26:08.324Z,50.79
2023-04-20T03:29:04.847Z,50.75
2023-04-20T03:31:31.256Z,50.57
2023-04-20T03:33:57.991Z,50.59
2023-04-20T03:36:24.363Z,50.54
2023-04-20T03:38:50.726Z,50.71
2023-04-20T03:41:17.086Z,50.54
2023-04-20T03:43:43.416Z,50.72
2023-04-20T03:46:09.797Z,50.52
2023-04-20T03:48:36.228Z,50.75
2023-04-20T03:51:02.675Z,50.69
2023-04-20T03:53:30.764Z,50.59
2023-04-20T03:55:57.270Z,50.71
2023-04-20T03:58:25.188Z,50.65
2023-04-20T04:01:02.443Z,50.60
2023-04-20T04:03:29.975Z,50.70
2023-04-20T04:05:56.424Z,50.45
2023-04-20T04:08:22.779Z,50.52
2023-04-20T04:10:49.331Z,50.70
2023-04-20T04:13:15.672Z,50.69
2023-04-20T04:15:42.087Z,50.58
2023-04-20T04:18:12.172Z,50.51
2023-04-20T04:20:40.169Z,50.58
2023-04-20T04:23:08.231Z,50.52
2023-04-20T04:25:42.265Z,50.48
2023-04-20T04:28:11.115Z,50.47
2023-04-20T04:30:43.889Z,50.55
2023-04-20T04:33:14.443Z,50.75
2023-04-20T04:35:43.836Z,50.57
2023-04-20T04:38:11.352Z,50.79
2023-04-20T04:40:39.241Z,50.66
2023-04-20T04:43:10.157Z,50.41
2023-04-20T04:45:43.925Z,50.75
2023-04-20T04:48:12.279Z,50.64
2023-04-20T04:50:39.056Z,50.75
2023-04-20T04:53:05.950Z,50.73
2023-04-20T04:55:32.346Z,50.71
2023-04-20T04:57:58.684Z,50.67
2023-04-20T05:00:25.267Z,50.77
2023-04-20T05:02:53.055Z,50.84
2023-04-20T05:05:19.797Z,50.74
2023-04-20T05:07:46.132Z,50.77
2023-04-20T05:10:14.072Z,50.81
2023-04-20T05:12:41.488Z,50.63
2023-04-20T05:15:08.418Z,50.73
2023-04-20T05:17:35.083Z,50.73
2023-04-20T05:20:01.584Z,50.63
2023-04-20T05:22:27.933Z,50.62
2023-04-20T05:24:54.384Z,50.64
2023-04-20T05:27:20.887Z,50.62
2023-04-20T05:29:47.219Z,50.63
2023-04-20T05:32:13.554Z,50.67
2023-04-20T05:34:39.887Z,50.61
2023-04-20T05:37:06.476Z,50.77
2023-04-20T05:39:32.857Z,50.55
2023-04-20T05:41:59.212Z,50.79
2023-04-20T05:44:25.581Z,50.78
2023-04-20T05:46:52.017Z,50.79
2023-04-20T05:49:18.651Z,50.79
2023-04-20T05:51:45.220Z,50.62
2023-04-20T05:54:11.627Z,50.56
2023-04-20T05:56:37.984Z,50.75
2023-04-20T05:59:04.322Z,50.79
2023-04-20T06:01:30.713Z,50.76
2023-04-20T06:03:57.385Z,50.52
2023-04-20T06:06:23.870Z,51.03
2023-04-20T06:08:50.961Z,50.49
2023-04-20T06:11:17.317Z,50.44
2023-04-20T06:13:43.653Z,50.34
2023-04-20T06:16:10.929Z,50.28
2023-04-20T06:18:37.548Z,50.37
2023-04-20T06:21:04.026Z,50.51
2023-04-20T06:23:30.377Z,51.08
2023-04-20T06:25:56.724Z,51.07
2023-04-20T06:28:23.063Z,51.03
2023-04-20T06:30:49.476Z,51.14
2023-04-20T06:33:17.382Z,50.99
2023-04-20T06:35:43.845Z,50.84
2023-04-20T06:38:10.193Z,50.02
2023-04-20T06:40:36.530Z,50.49
2023-04-20T06:43:02.941Z,49.94
2023-04-20T06:45:29.286Z,49.98
2023-04-20T06:47:55.776Z,48.69
2023-04-20T06:50:22.229Z,49.12
2023-04-20T06:52:48.561Z,47.79
2023-04-20T06:55:14.915Z,47.66
2023-04-20T06:57:43.713Z,47.51
2023-04-20T07:00:10.627Z,47.28
2023-04-20T07:03:03.035Z,46.84
2023-04-20T07:05:29.487Z,47.62
2023-04-20T07:07:55.998Z,47.73
2023-04-20T07:10:22.387Z,46.89
2023-04-20T07:12:48.763Z,46.89
2023-04-20T07:15:15.263Z,47.35
2023-04-20T07:17:41.672Z,47.30
2023-04-20T07:20:08.825Z,47.35
2023-04-20T07:22:36.268Z,47.42
2023-04-20T07:25:03.259Z,47.25
2023-04-20T07:27:29.976Z,47.21
2023-04-20T07:29:56.829Z,47.06
2023-04-20T07:32:23.529Z,46.96
2023-04-20T07:34:49.941Z,46.85
2023-04-20T07:37:16.496Z,46.91
2023-04-20T07:39:42.837Z,46.96
2023-04-20T07:42:09.339Z,47.05
2023-04-20T07:44:35.814Z,46.52
2023-04-20T07:47:02.920Z,46.61
2023-04-20T07:49:29.360Z,46.80
2023-04-20T07:52:05.950Z,46.55
2023-04-20T07:54:39.842Z,46.61
2023-04-20T07:57:06.239Z,46.29
2023-04-20T07:59:32.814Z,46.30
2023-04-20T08:02:02.303Z,46.33
2023-04-20T08:04:28.863Z,46.58
2023-04-20T08:06:55.348Z,47.20
2023-04-20T08:09:21.681Z,46.13
2023-04-20T08:11:48.475Z,47.23
2023-04-20T08:14:15.085Z,46.90
2023-04-20T08:16:41.540Z,46.72
2023-04-20T08:19:10.574Z,46.72
2023-04-20T08:21:37.414Z,46.86
2023-04-20T08:24:04.279Z,46.83
2023-04-20T08:26:31.126Z,46.99
2023-04-20T08:28:57.481Z,47.01
2023-04-20T08:31:23.831Z,47.23
2023-04-20T08:33:50.349Z,47.31
2023-04-20T08:36:17.033Z,46.50
2023-04-20T08:38:43.384Z,46.51
2023-04-20T08:41:13.097Z,46.96
2023-04-20T08:43:39.506Z,46.85
2023-04-20T08:46:05.998Z,47.09
2023-04-20T08:48:36.302Z,47.23
2023-04-20T08:51:03.853Z,47.36
2023-04-20T08:53:32.923Z,47.14
2023-04-20T08:55:59.485Z,47.23
2023-04-20T08:58:26.074Z,47.45
2023-04-20T09:00:52.399Z,47.41
2023-04-20T09:03:30.909Z,47.55
2023-04-20T09:05:57.380Z,47.45
2023-04-20T09:08:33.544Z,47.52
2023-04-20T09:10:59.877Z,47.65
2023-04-20T09:13:26.254Z,47.89
2023-04-20T09:15:52.650Z,47.83
2023-04-20T09:18:19.009Z,47.91
2023-04-20T09:20:45.832Z,48.06
2023-04-20T09:23:12.616Z,48.03
2023-04-20T09:25:40.822Z,48.14
2023-04-20T09:28:07.198Z,48.00
2023-04-20T09:30:43.101Z,48.10
2023-04-20T09:33:10.943Z,48.22
2023-04-20T09:35:41.836Z,48.33
2023-04-20T09:38:08.367Z,48.37
2023-04-20T09:40:35.148Z,48.28
2023-04-20T09:43:07.834Z,48.16
2023-04-20T09:45:34.209Z,48.29
2023-04-20T09:48:00.661Z,48.29
2023-04-20T09:50:34.979Z,48.20
2023-04-20T09:53:08.397Z,48.41
2023-04-20T09:55:34.732Z,48.28
2023-04-20T09:58:02.167Z,48.21
2023-04-20T10:00:28.537Z,48.44
2023-04-20T10:02:55.000Z,48.45
2023-04-20T10:05:32.006Z,48.55
2023-04-20T10:08:01.602Z,48.41
2023-04-20T10:10:27.950Z,48.29
2023-04-20T10:12:55.175Z,48.46
2023-04-20T10:15:27.463Z,48.41
2023-04-20T10:17:54.002Z,48.63
2023-04-20T10:20:20.890Z,48.48
2023-04-20T10:22:47.280Z,48.49
2023-04-20T10:25:20.720Z,48.59
2023-04-20T10:28:00.171Z,48.55
2023-04-20T10:30:26.865Z,48.47
2023-04-20T10:33:11.776Z,48.71
2023-04-20T10:35:54.948Z,48.57
2023-04-20T10:38:29.219Z,48.38
2023-04-20T10:40:55.582Z,48.61
2023-04-20T10:43:21.950Z,48.63
2023-04-20T10:45:48.727Z,48.60
2023-04-20T10:48:17.875Z,48.54
2023-04-20T10:50:44.508Z,48.78
2023-04-20T10:53:17.541Z,48.50
2023-04-20T10:55:43.875Z,48.56
2023-04-20T10:58:20.173Z,48.64
2023-04-20T11:00:46.516Z,48.73
2023-04-20T11:03:13.006Z,48.75
2023-04-20T11:05:39.431Z,48.76
2023-04-20T11:08:05.772Z,48.66
2023-04-20T11:10:38.794Z,48.65
2023-04-20T11:13:05.134Z,48.73
2023-04-20T11:15:34.638Z,48.72
2023-04-20T11:18:10.069Z,48.88
2023-04-20T11:20:36.470Z,48.83
2023-04-20T11:23:05.017Z,48.88
2023-04-20T11:25:31.518Z,48.50
2023-04-20T11:28:07.919Z,48.71
2023-04-20T11:30:43.207Z,48.71
2023-04-20T11:33:09.985Z,48.87
2023-04-20T11:35:37.694Z,48.77
2023-04-20T11:38:04.099Z,48.99
2023-04-20T11:40:30.544Z,48.95
2023-04-20T11:42:57.680Z,48.94
2023-04-20T11:45:24.004Z,48.97
2023-04-20T11:47:52.551Z,48.75
2023-04-20T11:50:18.987Z,48.93
2023-04-20T11:52:45.328Z,48.81
2023-04-20T11:55:12.453Z,49.09
2023-04-20T11:57:38.799Z,48.96
2023-04-20T12:00:06.501Z,48.88
2023-04-20T12:02:40.096Z,48.94
2023-04-20T12:05:06.660Z,49.13
2023-04-20T12:07:33.298Z,48.92
2023-04-20T12:09:59.639Z,49.06
2023-04-20T12:12:26.728Z,48.99
2023-04-20T12:14:53.114Z,49.03
2023-04-20T12:17:19.455Z,49.11
2023-04-20T12:19:45.794Z,49.26
2023-04-20T12:22:12.146Z,49.02
2023-04-20T12:24:38.635Z,49.10
2023-04-20T12:27:06.033Z,49.07
2023-04-20T12:29:33.129Z,49.13
2023-04-20T12:31:59.991Z,48.95
2023-04-20T12:34:26.662Z,49.18
2023-04-20T12:36:53.034Z,49.12
2023-04-20T12:39:19.371Z,49.43
2023-04-20T12:41:45.696Z,49.74
2023-04-20T12:44:13.184Z,49.79
2023-04-20T12:46:39.638Z,49.89
2023-04-20T12:49:06.153Z,50.07
2023-04-20T12:51:32.788Z,50.12
2023-04-20T12:53:59.121Z,50.23
2023-04-20T12:56:25.615Z,50.33
2023-04-20T12:58:51.961Z,50.32
2023-04-20T13:01:18.332Z,50.21
2023-04-20T13:03:44.820Z,50.32
2023-04-20T13:06:13.742Z,50.34
2023-04-20T13:08:40.697Z,50.30
2023-04-20T13:11:07.089Z,50.16
2023-04-20T13:13:33.424Z,50.22
2023-04-20T13:15:59.787Z,50.10
2023-04-20T13:18:26.222Z,50.38
2023-04-20T13:20:52.553Z,50.48
2023-04-20T13:23:18.893Z,50.27
2023-04-20T13:25:45.308Z,50.56
2023-04-20T13:28:14.540Z,50.32
2023-04-20T13:30:41.199Z,50.27
2023-04-20T13:33:07.670Z,50.26
2023-04-20T13:35:34.423Z,50.29
2023-04-20T13:38:00.770Z,50.27
2023-04-20T13:40:27.379Z,50.46
2023-04-20T13:42:53.795Z,50.55
2023-04-20T13:45:20.517Z,50.51
2023-04-20T13:47:46.988Z,50.55
2023-04-20T13:50:13.396Z,50.59
2023-04-20T13:52:39.811Z,50.55
2023-04-20T13:55:06.366Z,50.55
2023-04-20T13:57:32.814Z,50.29
2023-04-20T14:00:00.807Z,50.30
2023-04-20T14:02:27.389Z,50.34
2023-04-20T14:04:53.843Z,50.31
2023-04-20T14:07:20.216Z,50.04
2023-04-20T14:09:46.541Z,50.34
2023-04-20T14:12:12.874Z,50.31
2023-04-20T14:14:39.836Z,50.38
2023-04-20T14:17:06.189Z,50.30
2023-04-20T14:19:32.530Z,50.10
2023-04-20T14:21:58.873Z,50.34
2023-04-20T14:24:25.294Z,50.24
2023-04-20T14:26:51.660Z,50.34
2023-04-20T14:29:17.998Z,50.30
2023-04-20T14:31:44.365Z,50.38
2023-04-20T14:34:12.697Z,50.38
2023-04-20T14:36:39.059Z,50.45
2023-04-20T14:39:05.585Z,50.27
2023-04-20T14:41:33.653Z,50.33
2023-04-20T14:44:00.109Z,50.40
2023-04-20T14:46:26.475Z,50.22
2023-04-20T14:48:52.945Z,50.32
2023-04-20T14:51:20.779Z,50.37
2023-04-20T14:53:47.135Z,50.53
2023-04-20T14:56:13.502Z,50.49
2023-04-20T14:58:42.263Z,50.61
2023-04-20T15:01:08.608Z,50.46
2023-04-20T15:03:35.050Z,50.27
2023-04-20T15:06:01.683Z,50.42
2023-04-20T15:08:28.056Z,50.58
2023-04-20T15:10:56.648Z,50.59
2023-04-20T15:13:23.683Z,50.65
2023-04-20T15:15:51.423Z,50.59
2023-04-20T15:18:19.096Z,50.51
2023-04-20T15:20:45.646Z,50.46
2023-04-20T15:23:12.023Z,50.75
2023-04-20T15:25:38.512Z,50.52
2023-04-20T15:28:04.882Z,50.62
2023-04-20T15:30:31.291Z,50.67
2023-04-20T15:33:05.165Z,50.94
2023-04-20T15:35:32.020Z,50.65
2023-04-20T15:37:58.368Z,50.83
2023-04-20T15:40:24.751Z,50.79
2023-04-20T15:42:51.522Z,50.80
2023-04-20T15:45:17.931Z,50.97
2023-04-20T15:47:44.486Z,50.97
2023-04-20T15:50:11.266Z,50.88
2023-04-20T15:52:37.614Z,50.83
2023-04-20T15:55:04.037Z,50.75
2023-04-20T15:57:31.220Z,50.96
2023-04-20T15:59:57.603Z,50.93
2023-04-20T16:02:24.200Z,51.04
2023-04-20T16:04:50.990Z,51.61
2023-04-20T16:07:17.516Z,52.61
2023-04-20T16:09:43.878Z,52.25
2023-04-20T16:12:10.404Z,52.75
2023-04-20T16:14:36.772Z,53.18
2023-04-20T16:17:03.172Z,51.65
2023-04-20T16:19:30.144Z,50.57
2023-04-20T16:21:56.514Z,50.67
2023-04-20T16:24:22.852Z,50.96
2023-04-20T16:26:49.192Z,50.62
2023-04-20T16:29:15.995Z,50.12
2023-04-20T16:31:42.386Z,50.26
2023-04-20T16:34:08.727Z,49.37
2023-04-20T16:36:35.060Z,49.02
2023-04-20T16:39:05.561Z,49.71
2023-04-20T16:41:31.918Z,49.18
2023-04-20T16:43:58.269Z,49.86
2023-04-20T16:46:24.682Z,49.22
2023-04-20T16:48:51.088Z,48.26
2023-04-20T16:51:17.426Z,48.35
2023-04-20T16:53:45.133Z,48.32
2023-04-20T16:56:12.189Z,48.55
2023-04-20T16:58:38.600Z,48.64
2023-04-20T17:01:06.505Z,48.76
2023-04-20T17:03:33.030Z,48.66
2023-04-20T17:05:59.564Z,48.70
2023-04-20T17:08:26.178Z,48.96
2023-04-20T17:10:52.525Z,48.96
2023-04-20T17:13:18.871Z,48.96
2023-04-20T17:15:46.211Z,48.80
2023-04-20T17:18:12.547Z,48.90
2023-04-20T17:20:40.391Z,52.51
2023-04-20T17:23:06.731Z,52.02
2023-04-20T17:25:33.068Z,49.04
2023-04-20T17:27:59.517Z,48.43
2023-04-20T17:30:25.888Z,47.12
2023-04-20T17:32:52.881Z,46.78
2023-04-20T17:35:19.246Z,47.06
2023-04-20T17:37:45.741Z,47.24
2023-04-20T17:40:12.172Z,46.41
2023-04-20T17:42:38.551Z,46.66
2023-04-20T17:45:05.524Z,46.36
2023-04-20T17:47:32.623Z,46.25
2023-04-20T17:50:02.123Z,46.36
2023-04-20T17:52:28.448Z,46.66
2023-04-20T17:54:55.856Z,46.62
2023-04-20T17:57:22.193Z,46.98
2023-04-20T17:59:48.596Z,47.18
2023-04-20T18:02:15.501Z,47.09
2023-04-20T18:04:42.106Z,47.40
2023-04-20T18:07:08.934Z,47.43
2023-04-20T18:09:35.280Z,47.33
2023-04-20T18:12:01.850Z,47.62
2023-04-20T18:14:28.231Z,48.06
2023-04-20T18:16:55.190Z,48.10
2023-04-20T18:19:21.625Z,47.61
2023-04-20T18:21:47.975Z,47.76
2023-04-20T18:24:14.342Z,48.22
2023-04-20T18:26:40.695Z,47.49
2023-04-20T18:29:07.078Z,47.85
2023-04-20T18:31:33.424Z,47.86
2023-04-20T18:33:59.855Z,47.78
2023-04-20T18:36:26.802Z,48.39
2023-04-20T18:38:54.021Z,48.63
2023-04-20T18:41:22.489Z,49.06
2023-04-20T18:43:49.679Z,49.12
2023-04-20T18:46:16.054Z,49.69
2023-04-20T18:48:42.388Z,48.89
2023-04-20T18:51:08.723Z,48.89
2023-04-20T18:53:35.088Z,48.62
2023-04-20T18:56:04.410Z,48.59
2023-04-20T18:58:30.789Z,48.80
2023-04-20T19:00:57.192Z,48.76
2023-04-20T19:03:24.338Z,48.75
2023-04-20T19:05:50.758Z,48.83
2023-04-20T19:08:17.108Z,48.92
2023-04-20T19:10:43.466Z,48.62
2023-04-20T19:13:09.783Z,48.93
2023-04-20T19:15:36.161Z,49.03
2023-04-20T19:18:02.572Z,49.08
2023-04-20T19:20:28.939Z,49.09
2023-04-20T19:22:55.279Z,49.16
2023-04-20T19:25:21.629Z,49.33
2023-04-20T19:27:47.974Z,49.45
2023-04-20T19:30:14.333Z,49.45
2023-04-20T19:32:40.712Z,49.49
2023-04-20T19:35:07.166Z,49.38
2023-04-20T19:37:33.510Z,49.33
2023-04-20T19:39:59.871Z,49.52
2023-04-20T19:42:26.192Z,49.37
2023-04-20T19:44:53.537Z,49.55
2023-04-20T19:47:20.608Z,49.56
2023-04-20T19:49:47.082Z,49.67
2023-04-20T19:52:13.408Z,49.77
2023-04-20T19:54:39.762Z,49.65
2023-04-20T19:57:06.106Z,49.69
2023-04-20T19:59:32.724Z,49.67
2023-04-20T20:01:59.197Z,49.93
2023-04-20T20:04:25.664Z,49.83
2023-04-20T20:06:52.118Z,49.93
2023-04-20T20:09:20.683Z,50.00
2023-04-20T20:11:50.125Z,49.92
2023-04-20T20:14:16.594Z,50.08
2023-04-20T20:16:43.041Z,50.04
2023-04-20T20:19:09.451Z,50.09
2023-04-20T20:21:35.783Z,49.99
2023-04-20T20:24:02.134Z,49.99
2023-04-20T20:26:28.482Z,49.97
2023-04-20T20:28:54.846Z,50.07
2023-04-20T20:31:21.638Z,49.95
2023-04-20T20:33:48.041Z,50.02
2023-04-20T20:36:14.502Z,50.01
2023-04-20T20:38:41.165Z,50.13
2023-04-20T20:41:07.569Z,50.23
2023-04-20T20:43:34.352Z,50.04
2023-04-20T20:46:00.680Z,50.12
2023-04-20T20:48:27.016Z,50.27
2023-04-20T20:50:53.350Z,50.21
2023-04-20T20:53:20.398Z,50.14
2023-04-20T20:55:46.789Z,50.21
2023-04-20T20:58:13.119Z,50.21
2023-04-20T21:00:39.471Z,50.32
2023-04-20T21:03:06.100Z,50.41
2023-04-20T21:05:35.051Z,50.33
2023-04-20T21:08:01.959Z,50.17
2023-04-20T21:10:28.307Z,50.35
2023-04-20T21:12:54.655Z,50.22
2023-04-20T21:15:21.219Z,50.25
2023-04-20T21:17:47.598Z,50.30
2023-04-20T21:20:14.023Z,50.44
2023-04-20T21:22:40.394Z,50.31
2023-04-20T21:25:06.900Z,50.46
2023-04-20T21:27:33.328Z,50.27
2023-04-20T21:29:59.690Z,50.46
2023-04-20T21:32:26.410Z,50.28
2023-04-20T21:34:53.010Z,50.45
2023-04-20T21:37:19.393Z,50.24
2023-04-20T21:39:45.890Z,50.32
2023-04-20T21:42:12.262Z,50.46
2023-04-20T21:44:38.616Z,50.37
2023-04-20T21:47:04.959Z,50.37
2023-04-20T21:49:31.335Z,50.56
2023-04-20T21:51:57.699Z,50.41
2023-04-20T21:54:24.070Z,50.49
2023-04-20T21:56:50.399Z,50.43
2023-04-20T21:59:17.007Z,50.57
2023-04-20T22:01:43.650Z,50.59
2023-04-20T22:04:10.262Z,50.59
2023-04-20T22:06:36.880Z,50.27
2023-04-20T22:09:04.345Z,50.40
2023-04-20T22:11:30.681Z,50.58
2023-04-20T22:14:00.357Z,50.61
2023-04-20T22:16:28.418Z,50.52
2023-04-20T22:18:54.990Z,50.47
2023-04-20T22:21:21.422Z,50.55
2023-04-20T22:23:47.779Z,50.45
2023-04-20T22:26:14.299Z,50.54
2023-04-20T22:28:40.640Z,50.77
2023-04-20T22:31:07.031Z,50.64
2023-04-20T22:33:33.478Z,50.44
2023-04-20T22:35:59.809Z,50.51
2023-04-20T22:38:26.228Z,50.53
2023-04-20T22:40:53.618Z,50.59
2023-04-20T22:43:21.137Z,50.58
2023-04-20T22:45:47.490Z,50.59
2023-04-20T22:48:13.821Z,50.74
2023-04-20T22:50:40.505Z,50.52
2023-04-20T22:53:06.833Z,50.71
2023-04-20T22:55:33.204Z,50.59
2023-04-20T22:57:59.534Z,50.57
2023-04-20T23:00:25.861Z,50.54
2023-04-20T23:02:52.252Z,50.55
2023-04-20T23:05:20.324Z,50.51
2023-04-20T23:07:46.767Z,50.62
2023-04-20T23:10:16.042Z,50.55
2023-04-20T23:12:44.527Z,50.58
2023-04-20T23:15:11.401Z,50.79
2023-04-20T23:17:37.796Z,50.76
2023-04-20T23:20:05.783Z,50.84
2023-04-20T23:22:32.103Z,50.71
2023-04-20T23:24:58.435Z,50.84
2023-04-20T23:27:24.791Z,50.77
2023-04-20T23:29:51.129Z,50.62
2023-04-20T23:32:17.470Z,50.85
2023-04-20T23:34:43.861Z,50.78
2023-04-20T23:37:10.692Z,50.60
2023-04-20T23:39:37.474Z,50.77
2023-04-20T23:42:04.608Z,50.79
2023-04-20T23:44:31.005Z,50.78
2023-04-20T23:46:57.394Z,50.63
2023-04-20T23:49:23.731Z,50.67
2023-04-20T23:51:50.070Z,50.73
2023-04-20T23:54:16.454Z,50.70
2023-04-20T23:56:42.791Z,50.64
2023-04-20T23:59:09.133Z,50.95
